Time;durP1;ratioP1;P1;durP2;ratioP2;P2;SDS_P1;SDS_P2;PMS_P1;PMS_P2;Temp;Humidity;BMP_temperature;BMP_pressure;BME280_temperature;BME280_humidity;BME280_pressure;Samples;Min_cycle;Max_cycle;Signal;HPM_P1;HPM_P2
2024/02/18 00:00:40;;;;;;;4.73;4.20;;;10.30;99.90;;;;;;5074178;28;20162;-69
2024/02/18 00:03:05;;;;;;;5.73;3.77;;;10.40;99.90;;;;;;5074355;28;20253;-70
2024/02/18 00:05:33;;;;;;;4.87;4.10;;;10.50;99.90;;;;;;5072542;28;20176;-69
2024/02/18 00:07:59;;;;;;;7.00;4.40;;;10.50;99.90;;;;;;5074836;28;20190;-70
2024/02/18 00:10:25;;;;;;;3.90;3.57;;;10.40;99.90;;;;;;5074582;28;20408;-70
2024/02/18 00:12:50;;;;;;;4.90;3.33;;;10.40;99.90;;;;;;5074185;28;20434;-70
2024/02/18 00:15:16;;;;;;;6.30;3.80;;;10.40;99.90;;;;;;5074315;28;20284;-70
2024/02/18 00:17:42;;;;;;;5.07;4.00;;;10.40;99.90;;;;;;5074216;28;20261;-70
2024/02/18 00:20:10;;;;;;;5.07;3.97;;;10.40;99.90;;;;;;5074086;28;20177;-70
2024/02/18 00:22:36;;;;;;;9.87;3.67;;;10.40;99.90;;;;;;5074150;28;20155;-70
2024/02/18 00:25:02;;;;;;;6.33;4.23;;;10.40;99.90;;;;;;5074266;28;20399;-70
2024/02/18 00:27:28;;;;;;;5.83;3.40;;;10.40;99.90;;;;;;5074188;28;20515;-70
2024/02/18 00:29:54;;;;;;;4.83;3.70;;;10.50;99.90;;;;;;5073922;28;20498;-70
2024/02/18 00:32:19;;;;;;;8.80;3.43;;;10.40;99.90;;;;;;5073734;28;21021;-70
2024/02/18 00:34:45;;;;;;;4.33;3.33;;;10.50;99.90;;;;;;5073458;28;20198;-70
2024/02/18 00:37:10;;;;;;;5.13;3.60;;;10.50;99.90;;;;;;5073943;28;20215;-70
2024/02/18 00:39:36;;;;;;;16.97;4.80;;;10.50;99.90;;;;;;5069268;28;20270;-70
2024/02/18 00:42:01;;;;;;;7.83;3.30;;;10.50;99.90;;;;;;5070720;28;20202;-70
2024/02/18 00:44:27;;;;;;;5.30;3.50;;;10.50;99.90;;;;;;5072372;28;20264;-70
2024/02/18 00:46:52;;;;;;;5.23;3.97;;;10.50;99.90;;;;;;5073938;28;20261;-70
2024/02/18 00:49:18;;;;;;;7.83;4.00;;;10.50;99.90;;;;;;5073856;28;20166;-70
2024/02/18 00:51:44;;;;;;;8.73;5.57;;;10.60;99.90;;;;;;5073245;28;20548;-70
2024/02/18 00:54:10;;;;;;;6.47;4.20;;;10.60;99.90;;;;;;5074003;28;20174;-70
2024/02/18 00:56:35;;;;;;;5.33;3.83;;;10.60;99.90;;;;;;5073384;28;20420;-70
2024/02/18 00:59:00;;;;;;;3.57;3.27;;;10.50;99.90;;;;;;5073532;28;20249;-70
2024/02/18 01:01:26;;;;;;;8.60;3.10;;;10.50;99.90;;;;;;5073596;28;20655;-70
2024/02/18 01:03:52;;;;;;;5.67;3.73;;;10.50;99.90;;;;;;5073624;28;20166;-69
2024/02/18 01:06:17;;;;;;;7.70;4.33;;;10.50;99.90;;;;;;5073889;28;20193;-69
2024/02/18 01:08:43;;;;;;;6.47;3.93;;;10.50;99.90;;;;;;5073634;28;20626;-70
2024/02/18 01:11:08;;;;;;;7.30;5.07;;;10.50;99.90;;;;;;5073554;28;20204;-70
2024/02/18 01:13:34;;;;;;;5.73;3.53;;;10.50;99.90;;;;;;5073692;28;20533;-70
2024/02/18 01:16:00;;;;;;;10.20;4.50;;;10.50;99.90;;;;;;5073426;28;20569;-70
2024/02/18 01:18:25;;;;;;;6.27;4.40;;;10.40;99.90;;;;;;5073072;28;20170;-70
2024/02/18 01:20:51;;;;;;;5.47;4.33;;;10.40;99.90;;;;;;5072452;28;20401;-70
2024/02/18 01:23:16;;;;;;;7.60;4.60;;;10.30;99.90;;;;;;5073056;28;20257;-70
2024/02/18 01:25:42;;;;;;;5.57;4.30;;;10.30;99.90;;;;;;5072721;28;20162;-69
2024/02/18 01:28:08;;;;;;;5.20;4.30;;;10.20;99.90;;;;;;5072695;28;20647;-70
2024/02/18 01:30:33;;;;;;;8.17;4.90;;;10.20;99.90;;;;;;5072395;28;20244;-70
2024/02/18 01:32:59;;;;;;;9.03;4.60;;;10.30;99.90;;;;;;5072680;28;20176;-70
2024/02/18 01:35:24;;;;;;;7.60;4.47;;;10.40;99.90;;;;;;5072625;28;20660;-70
2024/02/18 01:37:50;;;;;;;9.20;4.50;;;10.40;99.90;;;;;;5071395;28;20608;-70
2024/02/18 01:40:16;;;;;;;9.40;5.37;;;10.40;99.90;;;;;;5066887;28;20676;-70
2024/02/18 01:42:42;;;;;;;7.33;4.90;;;10.50;99.90;;;;;;5072887;28;20172;-70
2024/02/18 01:45:11;;;;;;;4.90;4.40;;;10.50;99.90;;;;;;5072844;28;20416;-70
2024/02/18 01:47:38;;;;;;;7.30;5.10;;;10.50;99.90;;;;;;5072470;28;20424;-70
2024/02/18 01:50:07;;;;;;;12.43;5.10;;;10.50;99.90;;;;;;5072128;28;20404;-70
2024/02/18 01:52:33;;;;;;;14.10;6.13;;;10.50;99.90;;;;;;5073033;28;20439;-70
2024/02/18 01:54:59;;;;;;;15.93;4.47;;;10.50;99.90;;;;;;5071490;28;20448;-70
2024/02/18 01:57:29;;;;;;;5.97;4.90;;;10.40;99.90;;;;;;5072667;28;20536;-70
2024/02/18 02:00:00;;;;;;;5.63;4.27;;;10.30;99.90;;;;;;5072762;28;20393;-70
2024/02/18 02:02:26;;;;;;;6.13;4.77;;;10.30;99.90;;;;;;5073142;28;20412;-69
2024/02/18 02:04:52;;;;;;;8.73;4.90;;;10.30;99.90;;;;;;5073161;28;20400;-70
2024/02/18 02:07:20;;;;;;;7.30;4.67;;;10.20;99.90;;;;;;5072862;28;20535;-70
2024/02/18 02:09:46;;;;;;;10.07;6.00;;;10.10;99.90;;;;;;5073188;28;20412;-70
2024/02/18 02:12:12;;;;;;;6.80;5.30;;;9.80;99.90;;;;;;5073240;28;20401;-70
2024/02/18 02:14:37;;;;;;;5.27;4.60;;;9.80;99.90;;;;;;5073208;28;20198;-70
2024/02/18 02:17:03;;;;;;;9.40;4.87;;;9.70;99.90;;;;;;5073474;28;20263;-69
2024/02/18 02:19:29;;;;;;;8.27;5.23;;;9.60;99.90;;;;;;5073506;28;20170;-69
2024/02/18 02:21:55;;;;;;;6.90;4.53;;;9.50;99.90;;;;;;5072577;28;20412;-70
2024/02/18 02:24:20;;;;;;;9.77;5.63;;;9.50;99.90;;;;;;5072959;28;20170;-70
2024/02/18 02:26:49;;;;;;;7.03;5.00;;;9.40;99.90;;;;;;5072973;28;20185;-70
2024/02/18 02:29:15;;;;;;;7.63;4.83;;;9.40;99.90;;;;;;5075013;28;20170;-70
2024/02/18 02:31:44;;;;;;;6.70;4.33;;;9.40;99.90;;;;;;5076705;28;20411;-70
2024/02/18 02:34:14;;;;;;;8.20;4.10;;;9.40;99.90;;;;;;5075683;28;20826;-69
2024/02/18 02:36:40;;;;;;;4.27;3.77;;;9.30;99.90;;;;;;5077036;28;20431;-70
2024/02/18 02:39:07;;;;;;;6.30;4.23;;;9.30;99.90;;;;;;5075906;28;20771;-69
2024/02/18 02:41:33;;;;;;;7.23;4.30;;;9.30;99.90;;;;;;5065107;28;20455;-70
2024/02/18 02:43:59;;;;;;;4.43;3.40;;;9.20;99.90;;;;;;5074851;28;20412;-70
2024/02/18 02:46:25;;;;;;;7.10;3.87;;;9.20;99.90;;;;;;5076236;28;20435;-70
2024/02/18 02:48:51;;;;;;;6.47;4.17;;;9.20;99.90;;;;;;5076761;28;20644;-70
2024/02/18 02:51:19;;;;;;;6.87;4.30;;;9.10;99.90;;;;;;5076080;28;20405;-70
2024/02/18 02:53:45;;;;;;;7.10;3.80;;;9.10;99.90;;;;;;5076170;28;20170;-70
2024/02/18 02:56:11;;;;;;;4.80;4.03;;;9.00;99.90;;;;;;5076567;28;20475;-70
2024/02/18 02:58:36;;;;;;;7.27;4.37;;;9.10;99.90;;;;;;5076276;28;20915;-69
2024/02/18 03:01:02;;;;;;;7.37;4.80;;;9.10;99.90;;;;;;5075646;28;20666;-70
2024/02/18 03:03:27;;;;;;;4.97;4.30;;;9.00;99.90;;;;;;5074961;28;20177;-70
2024/02/18 03:05:53;;;;;;;7.80;3.70;;;9.00;99.90;;;;;;5075763;28;20687;-69
2024/02/18 03:08:18;;;;;;;9.10;5.23;;;8.90;99.90;;;;;;5076168;28;20174;-70
2024/02/18 03:10:44;;;;;;;5.07;4.53;;;8.90;99.90;;;;;;5075733;28;20178;-70
2024/02/18 03:13:10;;;;;;;7.67;4.70;;;8.90;99.90;;;;;;5076386;28;20174;-70
2024/02/18 03:15:35;;;;;;;6.20;4.30;;;8.90;99.90;;;;;;5076559;28;20197;-70
2024/02/18 03:18:03;;;;;;;6.70;4.53;;;8.90;99.90;;;;;;5075868;28;20197;-70
2024/02/18 03:20:28;;;;;;;10.93;4.47;;;8.90;99.90;;;;;;5076053;28;20208;-69
2024/02/18 03:22:54;;;;;;;6.20;3.67;;;8.90;99.90;;;;;;5076138;28;20404;-69
2024/02/18 03:25:20;;;;;;;6.10;4.20;;;9.00;99.90;;;;;;5076610;28;20241;-70
2024/02/18 03:27:46;;;;;;;5.47;4.30;;;9.00;99.90;;;;;;5074876;28;20197;-70
2024/02/18 03:30:12;;;;;;;7.80;4.80;;;9.00;99.90;;;;;;5075897;28;20413;-70
2024/02/18 03:32:37;;;;;;;5.20;4.03;;;8.90;99.90;;;;;;5076531;28;20536;-69
2024/02/18 03:35:04;;;;;;;8.03;4.13;;;8.90;99.90;;;;;;5076255;28;20890;-69
2024/02/18 03:37:30;;;;;;;6.47;4.43;;;8.90;99.90;;;;;;5075024;28;20568;-69
2024/02/18 03:39:56;;;;;;;3.77;3.30;;;8.90;99.90;;;;;;5071248;28;20425;-70
2024/02/18 03:42:21;;;;;;;8.10;4.00;;;8.90;99.90;;;;;;5075966;28;20503;-69
2024/02/18 03:44:47;;;;;;;7.30;5.10;;;8.90;99.90;;;;;;5076178;28;20182;-69
2024/02/18 03:47:13;;;;;;;4.27;3.70;;;8.90;99.90;;;;;;5076062;28;20675;-69
2024/02/18 03:49:38;;;;;;;7.13;3.83;;;8.90;99.90;;;;;;5076275;28;20212;-69
2024/02/18 03:52:04;;;;;;;5.47;3.90;;;8.80;99.90;;;;;;5075978;28;20198;-70
2024/02/18 03:54:30;;;;;;;6.40;5.03;;;8.80;99.90;;;;;;5076143;28;20201;-69
2024/02/18 03:56:56;;;;;;;8.43;4.40;;;8.80;99.90;;;;;;5076153;28;20178;-69
2024/02/18 03:59:22;;;;;;;8.07;4.60;;;8.80;99.90;;;;;;5076034;28;20532;-69
2024/02/18 04:01:48;;;;;;;6.17;4.10;;;8.70;99.90;;;;;;5075741;28;20459;-70
2024/02/18 04:04:14;;;;;;;8.37;4.10;;;8.70;99.90;;;;;;5076101;28;20782;-69
2024/02/18 04:06:40;;;;;;;5.73;3.77;;;8.70;99.90;;;;;;5075992;28;20201;-70
2024/02/18 04:09:06;;;;;;;7.07;3.90;;;8.70;99.90;;;;;;5076587;28;20404;-69
2024/02/18 04:11:31;;;;;;;5.60;3.37;;;8.70;99.90;;;;;;5075511;28;20177;-69
2024/02/18 04:13:57;;;;;;;4.77;4.13;;;8.70;99.90;;;;;;5075890;28;20417;-69
2024/02/18 04:16:23;;;;;;;8.33;3.57;;;8.80;99.90;;;;;;5075349;28;20595;-69
2024/02/18 04:18:48;;;;;;;4.77;3.20;;;8.80;99.90;;;;;;5075632;28;20182;-69
2024/02/18 04:21:14;;;;;;;3.90;2.93;;;8.80;99.90;;;;;;5074051;28;20510;-69
2024/02/18 04:23:39;;;;;;;5.60;3.67;;;8.70;99.90;;;;;;5075539;28;20629;-69
2024/02/18 04:26:05;;;;;;;5.43;4.10;;;8.80;99.90;;;;;;5075709;28;20197;-69
2024/02/18 04:28:31;;;;;;;4.20;3.10;;;8.90;99.90;;;;;;5075864;28;20234;-69
2024/02/18 04:30:57;;;;;;;4.00;3.13;;;8.90;99.90;;;;;;5075113;28;20435;-69
2024/02/18 04:33:22;;;;;;;7.50;4.53;;;8.90;99.90;;;;;;5075356;28;20198;-69
2024/02/18 04:35:48;;;;;;;5.23;3.77;;;8.90;99.90;;;;;;5075562;28;20201;-69
2024/02/18 04:38:14;;;;;;;7.27;3.87;;;8.90;99.90;;;;;;5075020;28;20171;-70
2024/02/18 04:40:39;;;;;;;4.50;3.80;;;8.90;99.90;;;;;;5075553;28;20537;-70
2024/02/18 04:43:05;;;;;;;3.83;3.20;;;8.90;99.90;;;;;;5076246;28;20651;-70
2024/02/18 04:45:30;;;;;;;6.53;4.40;;;8.90;99.90;;;;;;5075449;28;20170;-70
2024/02/18 04:47:56;;;;;;;9.73;4.03;;;8.90;99.90;;;;;;5075494;28;20198;-70
2024/02/18 04:50:21;;;;;;;3.80;3.20;;;8.90;99.90;;;;;;5074968;28;20224;-69
2024/02/18 04:52:47;;;;;;;7.90;3.90;;;8.90;99.90;;;;;;5074894;28;20563;-69
2024/02/18 04:55:13;;;;;;;4.43;4.00;;;8.90;99.90;;;;;;5075066;28;20198;-69
2024/02/18 04:57:39;;;;;;;4.03;3.63;;;8.90;99.90;;;;;;5074873;28;20208;-69
2024/02/18 05:00:05;;;;;;;6.10;4.27;;;9.00;99.90;;;;;;5074933;28;20162;-69
2024/02/18 05:02:32;;;;;;;5.00;3.77;;;8.90;99.90;;;;;;5074826;28;20400;-69
2024/02/18 05:04:59;;;;;;;4.83;3.87;;;8.90;99.90;;;;;;5074573;28;20436;-69
2024/02/18 05:07:25;;;;;;;3.63;3.00;;;9.00;99.90;;;;;;5074622;28;20569;-69
2024/02/18 05:09:50;;;;;;;3.57;3.27;;;9.00;99.90;;;;;;5074229;28;21113;-69
2024/02/18 05:12:16;;;;;;;4.97;3.30;;;9.00;99.90;;;;;;5074125;28;20549;-69
2024/02/18 05:14:41;;;;;;;3.70;2.80;;;9.00;99.90;;;;;;5073978;28;20287;-69
2024/02/18 05:17:07;;;;;;;7.50;3.13;;;9.10;99.90;;;;;;5074118;28;20217;-69
2024/02/18 05:19:32;;;;;;;4.83;3.40;;;9.10;99.90;;;;;;5074508;28;20169;-69
2024/02/18 05:21:58;;;;;;;4.93;2.70;;;9.20;99.90;;;;;;5074408;28;20170;-70
2024/02/18 05:24:24;;;;;;;4.60;2.80;;;9.10;99.90;;;;;;5074364;28;20162;-70
2024/02/18 05:26:49;;;;;;;5.43;2.67;;;9.20;99.90;;;;;;5074104;28;20231;-70
2024/02/18 05:29:15;;;;;;;7.70;3.27;;;9.30;99.90;;;;;;5074125;28;20166;-70
2024/02/18 05:31:41;;;;;;;4.23;2.37;;;9.40;99.90;;;;;;5073579;28;20249;-70
2024/02/18 05:34:06;;;;;;;4.77;3.47;;;9.40;99.90;;;;;;5073441;28;20202;-69
2024/02/18 05:36:32;;;;;;;4.60;2.90;;;9.50;99.90;;;;;;5073749;28;20198;-70
2024/02/18 05:38:57;;;;;;;9.00;3.20;;;9.50;99.90;;;;;;5073557;28;20163;-70
2024/02/18 05:41:23;;;;;;;3.23;2.60;;;9.60;99.90;;;;;;5073366;28;20174;-69
2024/02/18 05:43:49;;;;;;;5.07;2.97;;;9.60;99.90;;;;;;5073083;28;20170;-69
2024/02/18 05:46:14;;;;;;;4.23;2.80;;;9.60;99.90;;;;;;5073404;28;20186;-69
2024/02/18 05:48:40;;;;;;;3.93;3.07;;;9.60;99.90;;;;;;5073295;28;20660;-69
2024/02/18 05:51:06;;;;;;;5.47;3.10;;;9.60;99.90;;;;;;5072915;28;20312;-69
2024/02/18 05:53:32;;;;;;;4.50;2.50;;;9.60;99.90;;;;;;5072597;28;20251;-69
2024/02/18 05:55:58;;;;;;;4.30;3.27;;;9.50;99.90;;;;;;5073014;28;20448;-69
2024/02/18 05:58:23;;;;;;;4.97;2.47;;;9.50;99.90;;;;;;5072857;28;20217;-69
2024/02/18 06:00:49;;;;;;;3.87;2.23;;;9.50;99.90;;;;;;5071273;28;20162;-69
2024/02/18 06:03:15;;;;;;;4.40;2.30;;;9.50;99.90;;;;;;5071777;28;20190;-69
2024/02/18 06:05:41;;;;;;;8.00;3.83;;;9.50;99.90;;;;;;5072475;28;20447;-69
2024/02/18 06:08:07;;;;;;;5.50;2.80;;;9.50;99.90;;;;;;5072575;28;20166;-69
2024/02/18 06:10:33;;;;;;;4.30;2.90;;;9.40;99.90;;;;;;5072630;28;20400;-69
2024/02/18 06:13:00;;;;;;;7.33;2.90;;;9.50;99.90;;;;;;5071131;28;20481;-69
2024/02/18 06:15:26;;;;;;;4.83;2.23;;;9.50;99.90;;;;;;5072569;28;20680;-69
2024/02/18 06:17:51;;;;;;;3.67;2.37;;;9.50;99.90;;;;;;5072437;28;20421;-69
2024/02/18 06:20:17;;;;;;;3.93;2.83;;;9.50;99.90;;;;;;5072280;28;20169;-69
2024/02/18 06:22:42;;;;;;;3.03;2.13;;;9.40;99.90;;;;;;5071163;28;20166;-69
2024/02/18 06:25:08;;;;;;;5.40;2.43;;;9.50;99.90;;;;;;5072233;28;20168;-69
2024/02/18 06:27:35;;;;;;;2.93;2.00;;;9.50;99.90;;;;;;5063365;28;20302;-69
2024/02/18 06:30:04;;;;;;;3.37;1.93;;;9.50;99.90;;;;;;5061139;28;20420;-69
2024/02/18 06:32:30;;;;;;;2.57;1.80;;;9.40;99.90;;;;;;5062769;28;20405;-70
2024/02/18 06:34:56;;;;;;;9.70;2.43;;;9.40;99.90;;;;;;5055869;28;20952;-70
2024/02/18 06:37:21;;;;;;;3.37;2.43;;;9.40;99.90;;;;;;5052363;28;20674;-70
2024/02/18 06:39:47;;;;;;;3.70;2.00;;;9.40;99.90;;;;;;5051915;28;20530;-70
2024/02/18 06:42:12;;;;;;;7.10;3.20;;;9.40;99.90;;;;;;5052322;28;20163;-70
2024/02/18 06:44:38;;;;;;;3.23;2.50;;;9.30;99.90;;;;;;5051973;28;20229;-70
2024/02/18 06:47:03;;;;;;;4.13;3.07;;;9.20;99.90;;;;;;5051850;28;20199;-70
2024/02/18 06:49:30;;;;;;;3.83;2.77;;;9.20;99.90;;;;;;5051936;28;20250;-70
2024/02/18 06:51:56;;;;;;;5.27;2.90;;;9.10;99.90;;;;;;5051788;28;20179;-70
2024/02/18 06:54:22;;;;;;;5.43;3.60;;;9.00;99.90;;;;;;5052235;28;20401;-70
2024/02/18 06:56:48;;;;;;;2.40;2.20;;;9.00;99.90;;;;;;5052124;28;20421;-70
2024/02/18 06:59:14;;;;;;;5.90;2.70;;;9.00;99.90;;;;;;5051993;28;20174;-70
2024/02/18 07:01:39;;;;;;;6.03;3.07;;;9.00;99.90;;;;;;5051955;28;20163;-70
2024/02/18 07:04:05;;;;;;;6.80;2.53;;;9.00;99.90;;;;;;5052364;28;20408;-70
2024/02/18 07:06:31;;;;;;;3.73;2.50;;;8.90;99.90;;;;;;5052333;28;20262;-70
2024/02/18 07:08:56;;;;;;;3.83;3.27;;;8.90;99.90;;;;;;5052049;28;20179;-70
2024/02/18 07:11:25;;;;;;;3.70;2.83;;;8.90;99.90;;;;;;5050278;28;20416;-70
2024/02/18 07:13:53;;;;;;;3.97;2.90;;;8.90;99.90;;;;;;5053617;28;20170;-70
2024/02/18 07:16:19;;;;;;;3.63;2.83;;;8.90;99.90;;;;;;5055950;28;20453;-70
2024/02/18 07:18:46;;;;;;;4.73;3.20;;;8.90;99.90;;;;;;5056530;28;20404;-70
2024/02/18 07:21:14;;;;;;;3.73;2.90;;;9.00;99.90;;;;;;5054707;28;20411;-70
2024/02/18 07:23:40;;;;;;;3.93;2.67;;;9.00;99.90;;;;;;5055778;28;20409;-70
2024/02/18 07:26:10;;;;;;;4.63;3.47;;;9.00;99.90;;;;;;5055369;28;20436;-70
2024/02/18 07:28:36;;;;;;;4.60;3.23;;;9.00;99.90;;;;;;5055789;28;20482;-69
2024/02/18 07:31:02;;;;;;;3.50;2.07;;;9.10;99.90;;;;;;5055454;28;20444;-69
2024/02/18 07:33:27;;;;;;;3.43;2.80;;;9.00;99.90;;;;;;5055970;28;20401;-69
2024/02/18 07:35:53;;;;;;;3.17;2.30;;;9.00;99.90;;;;;;5054140;28;20198;-69
2024/02/18 07:38:18;;;;;;;10.97;3.20;;;9.00;99.90;;;;;;5055379;28;20529;-69
2024/02/18 07:40:44;;;;;;;4.27;3.33;;;9.00;99.90;;;;;;5055222;28;20642;-69
2024/02/18 07:43:09;;;;;;;4.00;2.57;;;9.00;99.90;;;;;;5055318;28;20159;-69
2024/02/18 07:45:35;;;;;;;5.77;2.73;;;9.00;99.90;;;;;;5055450;28;20210;-69
2024/02/18 07:48:00;;;;;;;7.40;2.90;;;8.90;99.90;;;;;;5055201;28;20215;-70
2024/02/18 07:50:26;;;;;;;4.70;2.50;;;8.80;99.90;;;;;;5055363;28;20556;-69
2024/02/18 07:52:51;;;;;;;3.40;2.80;;;8.90;99.90;;;;;;5054673;28;20217;-69
2024/02/18 07:55:17;;;;;;;6.50;3.10;;;9.00;99.90;;;;;;5054950;28;20554;-69
2024/02/18 07:57:43;;;;;;;2.97;2.40;;;9.00;99.90;;;;;;5054731;28;20226;-69
2024/02/18 08:00:09;;;;;;;2.30;2.00;;;9.10;99.90;;;;;;5055083;28;20170;-69
2024/02/18 08:02:34;;;;;;;3.70;2.80;;;9.10;99.90;;;;;;5054963;28;20191;-69
2024/02/18 08:05:00;;;;;;;4.77;2.87;;;9.10;99.90;;;;;;5055424;28;20417;-69
2024/02/18 08:07:25;;;;;;;5.47;3.80;;;9.00;99.90;;;;;;5055256;28;20229;-69
2024/02/18 08:09:51;;;;;;;5.30;3.13;;;9.00;99.90;;;;;;5054196;28;20234;-69
2024/02/18 08:12:16;;;;;;;3.17;2.87;;;9.00;99.90;;;;;;5054492;28;20253;-74
2024/02/18 08:14:42;;;;;;;3.23;2.97;;;8.90;99.90;;;;;;5054346;28;20448;-70
2024/02/18 08:17:09;;;;;;;4.77;2.87;;;9.00;99.90;;;;;;5054005;28;20787;-70
2024/02/18 08:19:35;;;;;;;3.60;3.30;;;8.90;99.90;;;;;;5053190;28;20167;-70
2024/02/18 08:22:01;;;;;;;6.70;2.73;;;9.00;99.90;;;;;;5054167;28;20916;-70
2024/02/18 08:24:26;;;;;;;5.10;2.87;;;9.00;99.90;;;;;;5054469;28;20167;-70
2024/02/18 08:26:52;;;;;;;3.00;2.50;;;9.10;99.90;;;;;;5051771;28;20516;-70
2024/02/18 08:29:17;;;;;;;5.30;2.87;;;9.10;99.90;;;;;;5052683;28;20171;-70
2024/02/18 08:31:43;;;;;;;6.10;2.57;;;9.10;99.90;;;;;;5053617;28;20186;-70
2024/02/18 08:34:08;;;;;;;7.43;3.00;;;9.10;99.90;;;;;;5053999;28;20635;-70
2024/02/18 08:36:34;;;;;;;5.20;2.27;;;9.20;99.90;;;;;;5054067;28;20195;-70
2024/02/18 08:38:59;;;;;;;2.90;2.70;;;9.30;99.90;;;;;;5054275;28;20159;-70
2024/02/18 08:41:25;;;;;;;2.77;2.43;;;9.30;99.90;;;;;;5053822;28;20167;-69
2024/02/18 08:43:52;;;;;;;3.27;2.60;;;9.20;99.90;;;;;;5052869;28;20167;-70
2024/02/18 08:46:18;;;;;;;9.80;3.27;;;9.30;99.90;;;;;;5054043;28;20455;-70
2024/02/18 08:48:44;;;;;;;2.60;2.33;;;9.30;99.90;;;;;;5054119;28;20488;-70
2024/02/18 08:51:10;;;;;;;2.57;2.23;;;9.40;99.90;;;;;;5053276;28;20171;-70
2024/02/18 08:53:40;;;;;;;2.47;2.27;;;9.50;99.90;;;;;;5052747;28;20428;-69
2024/02/18 08:56:10;;;;;;;3.00;1.50;;;9.60;99.90;;;;;;5052671;28;20199;-69
2024/02/18 08:58:36;;;;;;;2.23;1.50;;;9.70;99.90;;;;;;5052765;28;20904;-69
2024/02/18 09:01:02;;;;;;;2.63;1.47;;;9.80;99.90;;;;;;5051248;28;20540;-70
2024/02/18 09:03:27;;;;;;;6.90;1.90;;;9.90;99.90;;;;;;5052783;28;20924;-69
2024/02/18 09:05:53;;;;;;;2.90;1.60;;;10.00;99.90;;;;;;5052687;28;20171;-70
2024/02/18 09:08:20;;;;;;;7.70;2.30;;;10.00;99.90;;;;;;5052715;28;20541;-70
2024/02/18 09:10:46;;;;;;;2.80;1.70;;;10.20;99.90;;;;;;5052277;28;20526;-69
2024/02/18 09:13:11;;;;;;;1.83;1.37;;;10.30;99.90;;;;;;5051183;28;20483;-68
2024/02/18 09:15:37;;;;;;;3.30;1.73;;;10.40;99.90;;;;;;5052457;28;20199;-69
2024/02/18 09:18:03;;;;;;;2.57;1.83;;;10.50;99.90;;;;;;5052419;28;20178;-69
2024/02/18 09:20:29;;;;;;;3.20;2.00;;;10.60;99.90;;;;;;5052144;28;20167;-69
2024/02/18 09:22:55;;;;;;;3.40;2.00;;;10.60;99.90;;;;;;5052399;28;20159;-69
2024/02/18 09:25:21;;;;;;;4.50;1.70;;;10.60;99.90;;;;;;5052294;28;20398;-69
2024/02/18 09:27:47;;;;;;;4.70;1.83;;;10.70;99.90;;;;;;5052169;28;20425;-69
2024/02/18 09:30:13;;;;;;;1.50;1.37;;;10.70;99.90;;;;;;5052063;28;20826;-69
2024/02/18 09:32:39;;;;;;;4.73;1.47;;;10.80;99.90;;;;;;5052232;28;20179;-69
2024/02/18 09:35:05;;;;;;;2.03;1.47;;;10.70;99.90;;;;;;5051024;28;20554;-70
2024/02/18 09:37:31;;;;;;;1.97;1.33;;;10.80;99.90;;;;;;5051299;28;20421;-70
2024/02/18 09:39:56;;;;;;;3.77;1.43;;;10.80;99.90;;;;;;5051878;28;20192;-69
2024/02/18 09:42:22;;;;;;;2.90;1.33;;;10.80;99.90;;;;;;5051988;28;20167;-69
2024/02/18 09:44:49;;;;;;;3.37;2.07;;;10.90;99.90;;;;;;5051957;28;20685;-69
2024/02/18 09:47:16;;;;;;;3.17;1.40;;;11.00;99.90;;;;;;5051917;28;20429;-69
2024/02/18 09:49:42;;;;;;;4.57;2.03;;;11.00;99.90;;;;;;5051694;28;20414;-68
2024/02/18 09:52:11;;;;;;;1.50;1.20;;;11.10;99.90;;;;;;5051824;28;20457;-70
2024/02/18 09:54:36;;;;;;;1.97;1.20;;;11.10;99.90;;;;;;5051623;28;20409;-70
2024/02/18 09:57:03;;;;;;;1.70;1.30;;;11.10;99.90;;;;;;5051810;28;20437;-68
2024/02/18 09:59:28;;;;;;;3.07;1.43;;;11.10;99.90;;;;;;5051979;28;20163;-67
2024/02/18 10:01:58;;;;;;;1.93;1.50;;;11.10;99.90;;;;;;5051680;28;20413;-67
2024/02/18 10:04:25;;;;;;;4.70;2.03;;;11.00;99.90;;;;;;5051900;28;20241;-67
2024/02/18 10:06:53;;;;;;;3.30;1.40;;;10.90;99.90;;;;;;5051887;28;20422;-67
2024/02/18 10:09:18;;;;;;;3.90;1.43;;;10.80;99.90;;;;;;5051801;28;20817;-67
2024/02/18 10:11:44;;;;;;;1.77;1.47;;;10.70;99.90;;;;;;5051535;28;20413;-68
2024/02/18 10:14:10;;;;;;;15.43;2.20;;;10.60;99.90;;;;;;5051741;28;20162;-67
2024/02/18 10:16:36;;;;;;;2.43;1.50;;;10.50;99.90;;;;;;5051727;28;20473;-67
2024/02/18 10:19:02;;;;;;;2.33;1.47;;;10.40;99.90;;;;;;5051729;28;20622;-67
2024/02/18 10:21:27;;;;;;;1.80;1.70;;;10.20;99.90;;;;;;5051481;28;20409;-67
2024/02/18 10:23:54;;;;;;;2.57;1.50;;;10.20;99.90;;;;;;5051593;28;20545;-68
2024/02/18 10:26:20;;;;;;;2.53;2.00;;;10.00;99.90;;;;;;5051599;28;20214;-67
2024/02/18 10:28:46;;;;;;;2.43;1.70;;;9.90;99.90;;;;;;5052007;28;20445;-68
2024/02/18 10:31:11;;;;;;;3.60;2.00;;;9.80;99.90;;;;;;5051439;28;20817;-68
2024/02/18 10:33:38;;;;;;;6.00;2.00;;;9.60;99.90;;;;;;5051606;28;20441;-68
2024/02/18 10:36:13;;;;;;;3.50;2.60;;;9.50;99.90;;;;;;5051428;28;20202;-68
2024/02/18 10:38:46;;;;;;;2.40;1.63;;;9.30;99.90;;;;;;5051562;28;20495;-68
2024/02/18 10:41:19;;;;;;;4.67;2.60;;;9.20;99.90;;;;;;5051274;28;20406;-68
2024/02/18 10:43:56;;;;;;;2.00;1.60;;;9.10;99.90;;;;;;5051526;28;20451;-68
2024/02/18 10:46:24;;;;;;;4.17;2.60;;;9.10;99.90;;;;;;5049958;28;20436;-68
2024/02/18 10:48:52;;;;;;;3.70;2.27;;;9.00;99.90;;;;;;5052809;28;20413;-67
2024/02/18 10:51:33;;;;;;;7.93;2.60;;;9.00;99.90;;;;;;5062613;28;20404;-68
2024/02/18 10:54:11;;;;;;;2.37;2.17;;;8.90;99.90;;;;;;5065471;28;20543;-68
2024/02/18 10:56:40;;;;;;;5.50;2.57;;;8.90;99.90;;;;;;5069068;28;20495;-69
2024/02/18 10:59:27;;;;;;;2.77;2.10;;;8.80;99.90;;;;;;5055229;28;20767;-69
2024/02/18 11:01:59;;;;;;;5.00;2.13;;;8.70;99.90;;;;;;5054924;28;20742;-69
2024/02/18 11:04:26;;;;;;;3.20;2.10;;;8.70;99.90;;;;;;5055191;28;20431;-69
2024/02/18 11:06:53;;;;;;;5.57;2.17;;;8.60;99.90;;;;;;5055091;28;20494;-68
2024/02/18 11:09:19;;;;;;;3.60;1.90;;;8.60;99.90;;;;;;5055061;28;20401;-70
2024/02/18 11:11:47;;;;;;;3.87;2.60;;;8.60;99.90;;;;;;5054851;28;20409;-71
2024/02/18 11:14:13;;;;;;;5.87;2.73;;;8.60;99.90;;;;;;5055456;28;21229;-71
2024/02/18 11:16:41;;;;;;;2.83;2.47;;;8.50;99.90;;;;;;5055092;28;20457;-71
2024/02/18 11:19:08;;;;;;;3.37;2.13;;;8.50;99.90;;;;;;5055223;28;20393;-71
2024/02/18 11:21:36;;;;;;;2.70;1.77;;;8.40;99.90;;;;;;5054817;28;20401;-71
2024/02/18 11:24:01;;;;;;;3.00;2.10;;;8.40;99.90;;;;;;5055055;28;20393;-71
2024/02/18 11:26:28;;;;;;;2.63;2.20;;;8.40;99.90;;;;;;5054903;28;20570;-70
2024/02/18 11:29:02;;;;;;;2.37;2.10;;;8.50;99.90;;;;;;5054928;28;20496;-71
2024/02/18 11:31:30;;;;;;;2.93;2.20;;;8.50;99.90;;;;;;5054461;28;20173;-70
2024/02/18 11:33:58;;;;;;;6.83;2.90;;;8.60;99.90;;;;;;5054768;28;20416;-71
2024/02/18 11:36:27;;;;;;;2.70;2.03;;;8.60;99.90;;;;;;5054542;28;20449;-71
2024/02/18 11:38:56;;;;;;;4.60;2.37;;;8.70;99.90;;;;;;5054522;28;20905;-72
2024/02/18 11:41:32;;;;;;;9.87;2.67;;;8.80;99.90;;;;;;5054038;28;20404;-71
2024/02/18 11:44:00;;;;;;;2.23;2.03;;;8.90;99.90;;;;;;5053995;28;20535;-71
2024/02/18 11:46:29;;;;;;;6.50;2.73;;;9.00;99.90;;;;;;5054218;28;20932;-71
2024/02/18 11:48:55;;;;;;;5.40;2.40;;;9.00;99.90;;;;;;5054379;28;20412;-70
2024/02/18 11:51:22;;;;;;;5.57;3.07;;;8.90;99.90;;;;;;5054114;28;20771;-71
2024/02/18 11:53:49;;;;;;;1.90;1.70;;;8.90;99.90;;;;;;5054255;28;20398;-72
2024/02/18 11:56:15;;;;;;;5.80;2.77;;;8.90;99.90;;;;;;5054081;28;20835;-70
2024/02/18 11:58:42;;;;;;;9.73;4.00;;;8.80;99.90;;;;;;5054199;28;20402;-70
2024/02/18 12:01:08;;;;;;;5.53;2.53;;;8.70;99.90;;;;;;5052825;28;20405;-71
2024/02/18 12:03:34;;;;;;;2.67;2.43;;;8.70;99.90;;;;;;5054139;28;20405;-71
2024/02/18 12:06:01;;;;;;;5.90;2.60;;;8.70;99.90;;;;;;5069370;28;20436;-71
2024/02/18 12:08:28;;;;;;;3.43;2.43;;;8.60;99.90;;;;;;5053966;28;20405;-71
2024/02/18 12:10:53;;;;;;;3.40;3.10;;;8.50;99.90;;;;;;5069129;28;20901;-71
2024/02/18 12:13:24;;;;;;;3.13;2.80;;;8.60;99.90;;;;;;5069303;28;20420;-71
2024/02/18 12:15:50;;;;;;;2.57;2.37;;;8.60;99.90;;;;;;5069157;28;20191;-71
2024/02/18 12:18:19;;;;;;;3.07;2.53;;;8.60;99.90;;;;;;5053826;28;20737;-71
2024/02/18 12:20:47;;;;;;;2.40;1.97;;;8.50;99.90;;;;;;5053480;28;20911;-70
2024/02/18 12:23:14;;;;;;;2.87;2.50;;;8.60;99.90;;;;;;5052925;28;20401;-71
2024/02/18 12:25:40;;;;;;;3.80;2.43;;;8.50;99.90;;;;;;5053585;28;20416;-70
2024/02/18 12:28:08;;;;;;;6.70;2.57;;;8.60;99.90;;;;;;5053529;28;20500;-70
2024/02/18 12:30:34;;;;;;;3.97;2.00;;;8.60;99.90;;;;;;5053315;28;20166;-70
2024/02/18 12:33:01;;;;;;;4.30;2.53;;;8.70;99.90;;;;;;5053448;28;20888;-70
2024/02/18 12:35:27;;;;;;;4.07;2.60;;;8.70;99.90;;;;;;5052536;28;20195;-69
2024/02/18 12:37:52;;;;;;;5.17;2.80;;;8.90;99.90;;;;;;5053379;28;20800;-69
2024/02/18 12:40:18;;;;;;;4.93;3.27;;;9.00;99.90;;;;;;5053125;28;20194;-68
2024/02/18 12:42:44;;;;;;;4.53;2.63;;;9.00;99.90;;;;;;5053047;28;20159;-69
2024/02/18 12:45:29;;;;;;;10.80;2.77;;;9.10;99.90;;;;;;5053371;28;20827;-68
2024/02/18 12:47:56;;;;;;;3.10;2.50;;;9.10;99.90;;;;;;5053248;28;20238;-69